createdAt,value
2019-03-21T00:00:49.537Z,1026.90
2019-03-21T00:01:47.894Z,1026.92
2019-03-21T00:02:47.890Z,1026.95
2019-03-21T00:03:47.878Z,1026.93
2019-03-21T00:04:47.870Z,1026.95
2019-03-21T00:05:47.850Z,1026.93
2019-03-21T00:06:47.846Z,1026.94
2019-03-21T00:07:47.830Z,1027.01
2019-03-21T00:08:47.822Z,1026.97
2019-03-21T00:09:47.808Z,1027.00
2019-03-21T00:10:47.806Z,1026.99
2019-03-21T00:11:47.795Z,1027.04
2019-03-21T00:12:47.776Z,1027.03
2019-03-21T00:13:47.768Z,1027.00
2019-03-21T00:14:47.756Z,1026.98
2019-03-21T00:15:47.745Z,1026.98
2019-03-21T00:16:47.735Z,1026.99
2019-03-21T00:17:47.723Z,1026.98
2019-03-21T00:18:47.710Z,1026.95
2019-03-21T00:19:47.714Z,1026.93
2019-03-21T00:20:47.700Z,1026.97
2019-03-21T00:21:47.692Z,1026.93
2019-03-21T00:22:47.670Z,1026.97
2019-03-21T00:23:47.666Z,1026.93
2019-03-21T00:24:47.646Z,1026.93
2019-03-21T00:25:47.636Z,1026.95
2019-03-21T00:26:47.645Z,1026.97
2019-03-21T00:27:47.616Z,1026.95
2019-03-21T00:28:47.602Z,1026.93
2019-03-21T00:29:47.606Z,1026.90
2019-03-21T00:30:47.585Z,1026.98
2019-03-21T00:31:47.591Z,1026.96
2019-03-21T00:32:47.559Z,1026.96
2019-03-21T00:33:47.557Z,1026.96
2019-03-21T00:34:47.545Z,1026.95
2019-03-21T00:35:47.533Z,1026.93
2019-03-21T00:36:47.530Z,1026.94
2019-03-21T00:37:47.508Z,1026.95
2019-03-21T00:38:47.502Z,1026.94
2019-03-21T00:39:47.488Z,1026.97
2019-03-21T00:40:47.481Z,1026.97
2019-03-21T00:41:47.468Z,1026.97
2019-03-21T00:42:47.459Z,1026.97
2019-03-21T00:43:47.457Z,1026.95
2019-03-21T00:44:47.437Z,1026.99
2019-03-21T00:45:47.427Z,1026.97
2019-03-21T00:46:47.425Z,1026.95
2019-03-21T00:47:47.411Z,1026.98
2019-03-21T00:48:47.397Z,1026.96
2019-03-21T00:49:47.382Z,1026.98
2019-03-21T00:50:47.368Z,1026.96
2019-03-21T00:51:47.361Z,1026.98
2019-03-21T00:52:47.352Z,1026.94
2019-03-21T00:53:47.337Z,1026.96
2019-03-21T00:54:47.326Z,1026.94
2019-03-21T00:55:47.315Z,1026.98
2019-03-21T00:56:47.307Z,1026.94
2019-03-21T00:57:47.298Z,1026.98
2019-03-21T00:58:47.292Z,1026.98
2019-03-21T00:59:47.314Z,1026.94
2019-03-21T01:00:47.277Z,1026.97
2019-03-21T01:01:47.329Z,1026.92
2019-03-21T01:02:47.242Z,1026.95
2019-03-21T01:03:47.243Z,1026.98
2019-03-21T01:04:47.220Z,1026.99
2019-03-21T01:05:47.217Z,1026.97
2019-03-21T01:06:47.203Z,1026.94
2019-03-21T01:07:47.190Z,1026.94
2019-03-21T01:08:47.184Z,1026.92
2019-03-21T01:09:47.169Z,1026.89
2019-03-21T01:10:47.158Z,1026.90
2019-03-21T01:11:47.144Z,1026.90
2019-03-21T01:12:47.144Z,1026.86
2019-03-21T01:13:47.121Z,1026.85
2019-03-21T01:14:47.116Z,1026.80
2019-03-21T01:15:47.106Z,1026.78
2019-03-21T01:16:47.093Z,1026.75
2019-03-21T01:17:47.087Z,1026.79
2019-03-21T01:18:47.085Z,1026.79
2019-03-21T01:19:47.071Z,1026.77
2019-03-21T01:20:47.056Z,1026.76
2019-03-21T01:21:47.046Z,1026.76
2019-03-21T01:22:47.030Z,1026.79
2019-03-21T01:23:47.018Z,1026.78
2019-03-21T01:24:47.011Z,1026.79
2019-03-21T01:25:47.010Z,1026.78
2019-03-21T01:26:46.982Z,1026.85
2019-03-21T01:27:46.974Z,1026.82
2019-03-21T01:28:46.963Z,1026.81
2019-03-21T01:29:46.953Z,1026.82
2019-03-21T01:30:46.943Z,1026.82
2019-03-21T01:31:46.936Z,1026.80
2019-03-21T01:32:46.926Z,1026.84
2019-03-21T01:33:46.909Z,1026.85
2019-03-21T01:34:46.900Z,1026.84
2019-03-21T01:35:46.892Z,1026.88
2019-03-21T01:36:46.889Z,1026.81
2019-03-21T01:37:46.876Z,1026.80
2019-03-21T01:38:46.862Z,1026.82
2019-03-21T01:39:46.847Z,1026.79
2019-03-21T01:40:46.835Z,1026.74
2019-03-21T01:41:46.828Z,1026.77
2019-03-21T01:42:46.811Z,1026.77
2019-03-21T01:43:46.817Z,1026.73
2019-03-21T01:44:46.788Z,1026.69
2019-03-21T01:45:46.777Z,1026.67
2019-03-21T01:46:46.765Z,1026.63
2019-03-21T01:47:46.759Z,1026.61
2019-03-21T01:48:46.753Z,1026.58
2019-03-21T01:49:46.757Z,1026.59
2019-03-21T01:50:46.725Z,1026.56
2019-03-21T01:51:46.717Z,1026.52
2019-03-21T01:52:46.716Z,1026.55
2019-03-21T01:53:46.700Z,1026.53
2019-03-21T01:54:46.687Z,1026.57
2019-03-21T01:55:46.672Z,1026.58
2019-03-21T01:56:46.661Z,1026.61
2019-03-21T01:57:46.655Z,1026.63
2019-03-21T01:58:46.648Z,1026.60
2019-03-21T01:59:46.636Z,1026.63
2019-03-21T02:00:46.616Z,1026.65
2019-03-21T02:01:46.608Z,1026.64
2019-03-21T02:02:46.603Z,1026.63
2019-03-21T02:03:46.594Z,1026.57
2019-03-21T02:04:46.575Z,1026.53
2019-03-21T02:05:46.578Z,1026.53
2019-03-21T02:06:46.562Z,1026.54
2019-03-21T02:07:46.547Z,1026.52
2019-03-21T02:08:46.536Z,1026.54
2019-03-21T02:09:46.540Z,1026.50
2019-03-21T02:10:46.513Z,1026.50
2019-03-21T02:11:46.518Z,1026.52
2019-03-21T02:12:46.491Z,1026.49
2019-03-21T02:13:46.489Z,1026.54
2019-03-21T02:14:52.002Z,1026.50
2019-03-21T02:15:47.467Z,1026.51
2019-03-21T02:16:46.457Z,1026.50
2019-03-21T02:17:46.448Z,1026.46
2019-03-21T02:18:46.425Z,1026.48
2019-03-21T02:19:46.420Z,1026.47
2019-03-21T02:20:46.406Z,1026.45
2019-03-21T02:21:46.396Z,1026.44
2019-03-21T02:22:46.397Z,1026.43
2019-03-21T02:23:46.373Z,1026.44
2019-03-21T02:24:46.363Z,1026.46
2019-03-21T02:25:46.350Z,1026.44
2019-03-21T02:26:46.344Z,1026.46
2019-03-21T02:27:46.331Z,1026.49
2019-03-21T02:28:46.328Z,1026.47
2019-03-21T02:29:46.310Z,1026.49
2019-03-21T02:30:46.299Z,1026.50
2019-03-21T02:31:46.289Z,1026.51
2019-03-21T02:32:46.280Z,1026.49
2019-03-21T02:33:46.279Z,1026.47
2019-03-21T02:34:46.285Z,1026.44
2019-03-21T02:35:46.246Z,1026.45
2019-03-21T02:36:46.239Z,1026.43
2019-03-21T02:37:46.224Z,1026.43
2019-03-21T02:38:46.227Z,1026.41
2019-03-21T02:39:58.634Z,1026.40
2019-03-21T02:40:47.196Z,1026.40
2019-03-21T02:41:46.179Z,1026.40
2019-03-21T02:42:46.175Z,1026.39
2019-03-21T02:43:46.166Z,1026.32
2019-03-21T02:44:46.250Z,1026.32
2019-03-21T02:45:46.149Z,1026.36
2019-03-21T02:46:46.127Z,1026.36
2019-03-21T02:47:46.115Z,1026.36
2019-03-21T02:48:46.106Z,1026.35
2019-03-21T02:49:46.089Z,1026.38
2019-03-21T02:50:46.100Z,1026.40
2019-03-21T02:51:46.086Z,1026.36
2019-03-21T02:52:46.061Z,1026.37
2019-03-21T02:53:46.053Z,1026.37
2019-03-21T02:54:46.049Z,1026.37
2019-03-21T02:55:46.038Z,1026.34
2019-03-21T02:56:46.021Z,1026.36
2019-03-21T02:57:46.014Z,1026.41
2019-03-21T02:58:46.005Z,1026.36
2019-03-21T02:59:45.991Z,1026.34
2019-03-21T03:00:45.988Z,1026.32
2019-03-21T03:01:45.968Z,1026.30
2019-03-21T03:02:45.962Z,1026.34
2019-03-21T03:03:45.945Z,1026.39
2019-03-21T03:04:45.938Z,1026.35
2019-03-21T03:05:45.925Z,1026.38
2019-03-21T03:06:45.924Z,1026.39
2019-03-21T03:07:45.909Z,1026.40
2019-03-21T03:08:45.896Z,1026.42
2019-03-21T03:09:45.877Z,1026.45
2019-03-21T03:10:45.865Z,1026.41
2019-03-21T03:11:45.859Z,1026.43
2019-03-21T03:12:45.846Z,1026.42
2019-03-21T03:13:45.847Z,1026.39
2019-03-21T03:14:45.829Z,1026.42
2019-03-21T03:15:45.823Z,1026.35
2019-03-21T03:16:45.807Z,1026.36
2019-03-21T03:17:45.801Z,1026.39
2019-03-21T03:18:45.785Z,1026.41
2019-03-21T03:19:45.776Z,1026.40
2019-03-21T03:20:45.761Z,1026.42
2019-03-21T03:21:45.752Z,1026.43
2019-03-21T03:22:45.737Z,1026.41
2019-03-21T03:23:45.722Z,1026.40
2019-03-21T03:24:45.722Z,1026.44
2019-03-21T03:25:45.705Z,1026.44
2019-03-21T03:26:45.699Z,1026.44
2019-03-21T03:27:45.687Z,1026.39
2019-03-21T03:28:45.679Z,1026.46
2019-03-21T03:29:45.666Z,1026.49
2019-03-21T03:30:45.654Z,1026.51
2019-03-21T03:31:45.671Z,1026.51
2019-03-21T03:32:45.629Z,1026.54
2019-03-21T03:33:45.635Z,1026.54
2019-03-21T03:34:45.645Z,1026.52
2019-03-21T03:35:45.601Z,1026.55
2019-03-21T03:36:45.587Z,1026.57
2019-03-21T03:37:45.579Z,1026.53
2019-03-21T03:38:45.586Z,1026.54
2019-03-21T03:39:45.561Z,1026.55
2019-03-21T03:40:45.546Z,1026.53
2019-03-21T03:41:45.530Z,1026.55
2019-03-21T03:42:45.515Z,1026.55
2019-03-21T03:43:45.518Z,1026.54
2019-03-21T03:44:45.501Z,1026.56
2019-03-21T03:45:45.486Z,1026.52
2019-03-21T03:46:45.488Z,1026.52
2019-03-21T03:47:45.470Z,1026.51
2019-03-21T03:48:45.466Z,1026.49
2019-03-21T03:49:45.455Z,1026.51
2019-03-21T03:50:45.436Z,1026.52
2019-03-21T03:51:45.431Z,1026.49
2019-03-21T03:52:45.414Z,1026.48
2019-03-21T03:53:45.408Z,1026.45
2019-03-21T03:54:45.403Z,1026.48
2019-03-21T03:55:45.381Z,1026.47
2019-03-21T03:56:45.375Z,1026.46
2019-03-21T03:57:45.369Z,1026.45
2019-03-21T03:58:45.354Z,1026.49
2019-03-21T03:59:45.338Z,1026.48
2019-03-21T04:00:45.333Z,1026.51
2019-03-21T04:01:45.325Z,1026.51
2019-03-21T04:02:45.302Z,1026.51
2019-03-21T04:03:45.296Z,1026.61
2019-03-21T04:04:45.289Z,1026.58
2019-03-21T04:05:45.284Z,1026.60
2019-03-21T04:06:45.269Z,1026.58
2019-03-21T04:07:45.256Z,1026.59
2019-03-21T04:08:45.256Z,1026.57
2019-03-21T04:09:45.237Z,1026.61
2019-03-21T04:10:45.232Z,1026.57
2019-03-21T04:11:45.218Z,1026.58
2019-03-21T04:12:45.208Z,1026.59
2019-03-21T04:13:45.194Z,1026.57
2019-03-21T04:14:45.176Z,1026.58
2019-03-21T04:15:52.472Z,1026.57
2019-03-21T04:16:46.159Z,1026.56
2019-03-21T04:17:45.150Z,1026.60
2019-03-21T04:18:45.149Z,1026.64
2019-03-21T04:19:45.128Z,1026.64
2019-03-21T04:20:45.178Z,1026.62
2019-03-21T04:21:45.122Z,1026.62
2019-03-21T04:22:45.091Z,1026.57
2019-03-21T04:23:45.083Z,1026.60
2019-03-21T04:24:45.074Z,1026.64
2019-03-21T04:25:45.062Z,1026.67
2019-03-21T04:26:45.057Z,1026.60
2019-03-21T04:27:45.048Z,1026.61
2019-03-21T04:28:45.031Z,1026.59
2019-03-21T04:29:45.034Z,1026.59
2019-03-21T04:30:45.011Z,1026.62
2019-03-21T04:31:44.997Z,1026.60
2019-03-21T04:32:44.994Z,1026.63
2019-03-21T04:33:44.978Z,1026.58
2019-03-21T04:34:44.965Z,1026.63
2019-03-21T04:35:44.953Z,1026.66
2019-03-21T04:36:44.941Z,1026.65
2019-03-21T04:37:44.934Z,1026.66
2019-03-21T04:38:44.945Z,1026.66
2019-03-21T04:39:44.910Z,1026.66
2019-03-21T04:40:44.894Z,1026.64
2019-03-21T04:41:44.902Z,1026.63
2019-03-21T04:42:44.879Z,1026.64
2019-03-21T04:43:44.863Z,1026.66
2019-03-21T04:44:44.862Z,1026.65
2019-03-21T04:45:44.846Z,1026.64
2019-03-21T04:46:44.838Z,1026.65
2019-03-21T04:47:44.840Z,1026.63
2019-03-21T04:48:44.820Z,1026.68
2019-03-21T04:49:44.809Z,1026.68
2019-03-21T04:50:44.809Z,1026.67
2019-03-21T04:51:44.780Z,1026.71
2019-03-21T04:52:44.774Z,1026.73
2019-03-21T04:53:44.764Z,1026.72
2019-03-21T04:54:44.748Z,1026.71
2019-03-21T04:55:44.741Z,1026.74
2019-03-21T04:56:44.726Z,1026.74
2019-03-21T04:57:44.717Z,1026.77
2019-03-21T04:58:44.711Z,1026.73
2019-03-21T04:59:44.703Z,1026.72
2019-03-21T05:00:44.684Z,1026.75
2019-03-21T05:01:44.680Z,1026.73
2019-03-21T05:02:44.661Z,1026.71
2019-03-21T05:03:44.655Z,1026.69
2019-03-21T05:04:44.645Z,1026.63
2019-03-21T05:05:44.630Z,1026.66
2019-03-21T05:06:44.624Z,1026.64
2019-03-21T05:07:44.614Z,1026.61
2019-03-21T05:08:44.597Z,1026.65
2019-03-21T05:09:44.588Z,1026.68
2019-03-21T05:10:44.589Z,1026.66
2019-03-21T05:11:44.591Z,1026.74
2019-03-21T05:12:44.567Z,1026.67
2019-03-21T05:13:44.542Z,1026.68
2019-03-21T05:14:44.537Z,1026.68
2019-03-21T05:15:44.518Z,1026.70
2019-03-21T05:16:44.524Z,1026.73
2019-03-21T05:17:44.502Z,1026.74
2019-03-21T05:18:44.499Z,1026.75
2019-03-21T05:19:44.479Z,1026.78
2019-03-21T05:20:44.469Z,1026.74
2019-03-21T05:21:44.460Z,1026.73
2019-03-21T05:22:44.451Z,1026.68
2019-03-21T05:23:44.461Z,1026.74
2019-03-21T05:24:44.439Z,1026.71
2019-03-21T05:25:44.415Z,1026.74
2019-03-21T05:26:44.412Z,1026.75
2019-03-21T05:27:44.393Z,1026.77
2019-03-21T05:28:44.389Z,1026.72
2019-03-21T05:29:44.384Z,1026.75
2019-03-21T05:30:44.369Z,1026.70
2019-03-21T05:31:44.387Z,1026.70
2019-03-21T05:32:44.358Z,1026.74
2019-03-21T05:33:44.329Z,1026.69
2019-03-21T05:34:44.318Z,1026.69
2019-03-21T05:35:44.313Z,1026.73
2019-03-21T05:36:44.306Z,1026.72
2019-03-21T05:37:44.289Z,1026.74
2019-03-21T05:38:44.275Z,1026.72
2019-03-21T05:39:44.275Z,1026.70
2019-03-21T05:40:44.261Z,1026.73
2019-03-21T05:41:44.257Z,1026.72
2019-03-21T05:42:44.233Z,1026.71
2019-03-21T05:43:44.223Z,1026.70
2019-03-21T05:44:44.213Z,1026.71
2019-03-21T05:45:44.209Z,1026.70
2019-03-21T05:46:44.190Z,1026.72
2019-03-21T05:47:44.180Z,1026.74
2019-03-21T05:48:44.171Z,1026.77
2019-03-21T05:49:44.158Z,1026.71
2019-03-21T05:50:44.148Z,1026.75
2019-03-21T05:51:44.141Z,1026.78
2019-03-21T05:52:44.130Z,1026.77
2019-03-21T05:53:44.114Z,1026.77
2019-03-21T05:54:44.105Z,1026.80
2019-03-21T05:55:44.099Z,1026.77
2019-03-21T05:56:44.103Z,1026.82
2019-03-21T05:57:44.083Z,1026.89
2019-03-21T05:58:44.071Z,1026.82
2019-03-21T05:59:44.092Z,1026.83
2019-03-21T06:00:44.039Z,1026.87
2019-03-21T06:01:44.030Z,1026.87
2019-03-21T06:02:44.021Z,1026.90
2019-03-21T06:03:44.021Z,1026.91
2019-03-21T06:04:43.998Z,1026.91
2019-03-21T06:05:44.260Z,1026.89
2019-03-21T06:06:43.981Z,1026.86
2019-03-21T06:07:43.966Z,1026.86
2019-03-21T06:08:43.950Z,1026.83
2019-03-21T06:09:43.948Z,1026.86
2019-03-21T06:10:43.942Z,1026.85
2019-03-21T06:11:43.926Z,1026.85
2019-03-21T06:12:43.922Z,1026.87
2019-03-21T06:13:43.917Z,1026.82
2019-03-21T06:14:43.896Z,1026.90
2019-03-21T06:15:43.892Z,1026.90
2019-03-21T06:16:43.871Z,1026.93
2019-03-21T06:17:43.864Z,1026.92
2019-03-21T06:18:43.852Z,1026.97
2019-03-21T06:19:43.837Z,1027.01
2019-03-21T06:20:43.837Z,1027.01
2019-03-21T06:21:43.874Z,1027.00
2019-03-21T06:22:43.805Z,1027.04
2019-03-21T06:23:43.790Z,1027.07
2019-03-21T06:24:43.783Z,1027.09
2019-03-21T06:25:43.771Z,1027.10
2019-03-21T06:26:43.774Z,1027.12
2019-03-21T06:27:43.755Z,1027.06
2019-03-21T06:28:43.743Z,1027.07
2019-03-21T06:29:43.732Z,1027.12
2019-03-21T06:30:43.736Z,1027.09
2019-03-21T06:31:43.712Z,1027.10
2019-03-21T06:32:43.704Z,1027.14
2019-03-21T06:33:43.689Z,1027.13
2019-03-21T06:34:43.675Z,1027.12
2019-03-21T06:35:43.664Z,1027.13
2019-03-21T06:36:43.664Z,1027.16
2019-03-21T06:37:43.659Z,1027.10
2019-03-21T06:38:43.648Z,1027.11
2019-03-21T06:39:43.625Z,1027.10
2019-03-21T06:40:43.611Z,1027.13
2019-03-21T06:41:43.604Z,1027.13
2019-03-21T06:42:43.593Z,1027.17
2019-03-21T06:43:43.593Z,1027.17
2019-03-21T06:44:43.572Z,1027.18
2019-03-21T06:45:47.995Z,1027.19
2019-03-21T06:46:49.311Z,1027.24
2019-03-21T06:47:44.544Z,1027.22
2019-03-21T06:48:43.531Z,1027.22
2019-03-21T06:49:43.516Z,1027.29
2019-03-21T06:50:43.511Z,1027.33
2019-03-21T06:51:43.495Z,1027.33
2019-03-21T06:52:43.482Z,1027.35
2019-03-21T06:53:43.473Z,1027.38
2019-03-21T06:54:43.464Z,1027.33
2019-03-21T06:55:43.449Z,1027.32
2019-03-21T06:56:43.437Z,1027.32
2019-03-21T06:57:43.433Z,1027.33
2019-03-21T06:58:43.423Z,1027.33
2019-03-21T06:59:43.418Z,1027.38
2019-03-21T07:00:43.408Z,1027.36
2019-03-21T07:01:43.382Z,1027.38
2019-03-21T07:02:43.372Z,1027.38
2019-03-21T07:03:43.362Z,1027.36
2019-03-21T07:04:43.369Z,1027.32
2019-03-21T07:05:43.349Z,1027.41
2019-03-21T07:06:43.337Z,1027.42
2019-03-21T07:07:43.318Z,1027.42
2019-03-21T07:08:43.306Z,1027.41
2019-03-21T07:09:43.298Z,1027.43
2019-03-21T07:10:43.296Z,1027.40
2019-03-21T07:11:43.293Z,1027.39
2019-03-21T07:12:43.277Z,1027.39
2019-03-21T07:13:43.264Z,1027.42
2019-03-21T07:14:43.249Z,1027.41
2019-03-21T07:15:43.232Z,1027.43
2019-03-21T07:16:43.223Z,1027.46
2019-03-21T07:17:43.216Z,1027.43
2019-03-21T07:18:43.211Z,1027.47
2019-03-21T07:19:43.196Z,1027.53
2019-03-21T07:20:43.183Z,1027.57
2019-03-21T07:21:43.192Z,1027.57
2019-03-21T07:22:43.162Z,1027.57
2019-03-21T07:23:43.158Z,1027.58
2019-03-21T07:24:43.134Z,1027.55
2019-03-21T07:25:43.133Z,1027.57
2019-03-21T07:26:43.123Z,1027.58
2019-03-21T07:27:43.106Z,1027.60
2019-03-21T07:28:43.103Z,1027.57
2019-03-21T07:29:43.079Z,1027.58
2019-03-21T07:30:43.078Z,1027.60
2019-03-21T07:31:43.058Z,1027.65
2019-03-21T07:32:43.055Z,1027.61
2019-03-21T07:33:43.036Z,1027.59
2019-03-21T07:34:43.041Z,1027.61
2019-03-21T07:35:43.019Z,1027.65
2019-03-21T07:36:43.008Z,1027.63
2019-03-21T07:37:42.996Z,1027.65
2019-03-21T07:38:42.985Z,1027.63
2019-03-21T07:39:42.987Z,1027.67
2019-03-21T07:40:42.971Z,1027.68
2019-03-21T07:41:42.962Z,1027.72
2019-03-21T07:42:42.942Z,1027.69
2019-03-21T07:43:42.929Z,1027.69
2019-03-21T07:44:42.918Z,1027.66
2019-03-21T07:45:42.924Z,1027.65
2019-03-21T07:46:42.898Z,1027.66
2019-03-21T07:47:42.888Z,1027.68
2019-03-21T07:48:42.882Z,1027.69
2019-03-21T07:49:42.875Z,1027.73
2019-03-21T07:50:42.853Z,1027.73
2019-03-21T07:51:45.086Z,1027.79
2019-03-21T07:52:42.833Z,1027.77
2019-03-21T07:53:42.820Z,1027.77
2019-03-21T07:54:42.808Z,1027.71
2019-03-21T07:55:42.799Z,1027.74
2019-03-21T07:56:42.802Z,1027.77
2019-03-21T07:57:42.777Z,1027.71
2019-03-21T07:58:42.767Z,1027.73
2019-03-21T07:59:42.755Z,1027.75
2019-03-21T08:00:42.743Z,1027.77
2019-03-21T08:01:42.732Z,1027.76
2019-03-21T08:02:42.722Z,1027.76
2019-03-21T08:03:42.713Z,1027.79
2019-03-21T08:04:42.708Z,1027.83
2019-03-21T08:05:42.687Z,1027.77
2019-03-21T08:06:42.681Z,1027.79
2019-03-21T08:07:42.680Z,1027.76
2019-03-21T08:08:42.662Z,1027.79
2019-03-21T08:09:42.737Z,1027.83
2019-03-21T08:10:42.636Z,1027.76
2019-03-21T08:11:42.626Z,1027.77
2019-03-21T08:12:42.617Z,1027.74
2019-03-21T08:13:42.615Z,1027.77
2019-03-21T08:14:42.588Z,1027.75
2019-03-21T08:15:42.580Z,1027.74
2019-03-21T08:16:42.575Z,1027.75
2019-03-21T08:17:42.561Z,1027.77
2019-03-21T08:18:42.551Z,1027.78
2019-03-21T08:19:42.540Z,1027.75
2019-03-21T08:20:42.530Z,1027.76
2019-03-21T08:21:42.516Z,1027.72
2019-03-21T08:22:42.509Z,1027.80
2019-03-21T08:23:42.509Z,1027.77
2019-03-21T08:24:42.491Z,1027.81
2019-03-21T08:25:42.483Z,1027.84
2019-03-21T08:26:42.468Z,1027.81
2019-03-21T08:27:42.451Z,1027.83
2019-03-21T08:28:42.441Z,1027.85
2019-03-21T08:29:42.432Z,1027.85
2019-03-21T08:30:42.430Z,1027.87
2019-03-21T08:31:42.410Z,1027.85
2019-03-21T08:32:42.396Z,1027.89
2019-03-21T08:33:42.384Z,1027.89
2019-03-21T08:34:42.387Z,1027.89
2019-03-21T08:35:42.365Z,1027.94
2019-03-21T08:36:42.358Z,1027.90
2019-03-21T08:37:42.344Z,1027.96
2019-03-21T08:38:42.339Z,1027.95
2019-03-21T08:39:42.324Z,1027.94
2019-03-21T08:40:42.718Z,1027.91
2019-03-21T08:41:42.314Z,1027.92
2019-03-21T08:42:42.297Z,1027.92
2019-03-21T08:43:42.271Z,1027.89
2019-03-21T08:44:42.260Z,1027.93
2019-03-21T08:45:42.260Z,1027.94
2019-03-21T08:46:42.271Z,1027.91
2019-03-21T08:47:42.235Z,1027.96
2019-03-21T08:48:42.217Z,1027.91
2019-03-21T08:49:42.208Z,1027.89
2019-03-21T08:50:42.194Z,1027.91
2019-03-21T08:51:42.194Z,1027.88
2019-03-21T08:52:42.170Z,1027.87
2019-03-21T08:53:42.165Z,1027.90
2019-03-21T08:54:42.150Z,1027.95
2019-03-21T08:55:42.140Z,1027.89
2019-03-21T08:56:42.135Z,1027.87
2019-03-21T08:57:42.116Z,1027.87
2019-03-21T08:58:42.107Z,1027.91
2019-03-21T08:59:42.092Z,1027.89
2019-03-21T09:00:42.083Z,1027.85
2019-03-21T09:01:42.075Z,1027.91
2019-03-21T09:02:42.059Z,1027.89
2019-03-21T09:03:42.059Z,1027.91
2019-03-21T09:04:42.048Z,1027.93
2019-03-21T09:05:42.031Z,1027.90
2019-03-21T09:06:42.024Z,1027.92
2019-03-21T09:07:42.009Z,1027.91
2019-03-21T09:08:41.996Z,1027.91
2019-03-21T09:09:41.985Z,1027.93
2019-03-21T09:10:41.989Z,1027.96
2019-03-21T09:11:41.966Z,1027.93
2019-03-21T09:12:42.803Z,1027.95
2019-03-21T09:13:41.942Z,1027.95
2019-03-21T09:14:41.936Z,1027.92
2019-03-21T09:15:41.925Z,1027.91
2019-03-21T09:16:41.902Z,1027.91
2019-03-21T09:17:41.891Z,1027.91
2019-03-21T09:18:41.879Z,1027.94
2019-03-21T09:19:41.869Z,1027.90
2019-03-21T09:20:41.877Z,1027.95
2019-03-21T09:21:41.854Z,1027.93
2019-03-21T09:22:41.842Z,1027.91
2019-03-21T09:23:41.830Z,1027.91
2019-03-21T09:24:41.824Z,1027.95
2019-03-21T09:25:41.807Z,1027.96
2019-03-21T09:26:41.791Z,1027.96
2019-03-21T09:27:41.776Z,1027.96
2019-03-21T09:28:41.779Z,1027.97
2019-03-21T09:29:52.848Z,1027.99
2019-03-21T09:30:42.751Z,1027.95
2019-03-21T09:31:41.739Z,1027.94
2019-03-21T09:32:41.736Z,1027.95
2019-03-21T09:33:41.721Z,1027.97
2019-03-21T09:34:41.710Z,1027.95
2019-03-21T09:35:41.708Z,1027.97
2019-03-21T09:36:41.698Z,1027.94
2019-03-21T09:37:41.679Z,1027.88
2019-03-21T09:38:41.667Z,1027.93
2019-03-21T09:39:41.657Z,1027.96
2019-03-21T09:40:41.646Z,1027.90
2019-03-21T09:41:41.632Z,1027.88
2019-03-21T09:42:41.628Z,1027.88
2019-03-21T09:43:41.618Z,1027.88
2019-03-21T09:44:41.605Z,1027.88
2019-03-21T09:45:41.582Z,1027.88
2019-03-21T09:46:50.538Z,1027.92
2019-03-21T09:47:42.570Z,1027.94
2019-03-21T09:48:41.557Z,1027.90
2019-03-21T09:49:41.545Z,1027.92
2019-03-21T09:50:41.537Z,1027.93
2019-03-21T09:51:41.526Z,1027.92
2019-03-21T09:52:41.514Z,1027.89
2019-03-21T09:53:41.508Z,1027.88
2019-03-21T09:54:41.493Z,1027.93
2019-03-21T09:55:41.484Z,1027.93
2019-03-21T09:56:41.473Z,1027.90
2019-03-21T09:57:41.464Z,1027.89
2019-03-21T09:58:41.448Z,1027.93
2019-03-21T09:59:41.443Z,1027.87
2019-03-21T10:00:41.424Z,1027.85
2019-03-21T10:01:41.413Z,1027.88
2019-03-21T10:02:41.404Z,1027.87
2019-03-21T10:03:41.393Z,1027.82
2019-03-21T10:04:41.380Z,1027.85
2019-03-21T10:05:41.375Z,1027.83
2019-03-21T10:06:41.361Z,1027.81
2019-03-21T10:07:41.351Z,1027.83
2019-03-21T10:08:41.339Z,1027.82
2019-03-21T10:09:41.338Z,1027.83
2019-03-21T10:10:41.317Z,1027.83
2019-03-21T10:11:41.311Z,1027.85
2019-03-21T10:12:41.298Z,1027.84
2019-03-21T10:13:41.284Z,1027.85
2019-03-21T10:14:41.273Z,1027.80
2019-03-21T10:15:41.259Z,1027.82
2019-03-21T10:16:41.265Z,1027.83
2019-03-21T10:17:41.240Z,1027.83
2019-03-21T10:18:41.229Z,1027.86
2019-03-21T10:19:41.230Z,1027.89
2019-03-21T10:20:41.212Z,1027.88
2019-03-21T10:21:43.673Z,1027.88
2019-03-21T10:22:41.192Z,1027.87
2019-03-21T10:23:41.197Z,1027.87
2019-03-21T10:24:41.165Z,1027.85
2019-03-21T10:25:41.154Z,1027.86
2019-03-21T10:26:41.141Z,1027.93
2019-03-21T10:27:41.138Z,1027.83
2019-03-21T10:28:41.123Z,1027.86
2019-03-21T10:29:41.106Z,1027.87
2019-03-21T10:30:41.104Z,1027.82
2019-03-21T10:31:41.087Z,1027.87
2019-03-21T10:32:41.071Z,1027.84
2019-03-21T10:33:41.063Z,1027.87
2019-03-21T10:34:41.053Z,1027.84
2019-03-21T10:35:41.049Z,1027.85
2019-03-21T10:36:41.032Z,1027.86
2019-03-21T10:37:41.024Z,1027.84
2019-03-21T10:38:41.017Z,1027.85
2019-03-21T10:39:41.009Z,1027.88
2019-03-21T10:40:40.986Z,1027.91
2019-03-21T10:41:40.987Z,1027.83
2019-03-21T10:42:40.971Z,1027.83
2019-03-21T10:43:40.951Z,1027.81
2019-03-21T10:44:40.952Z,1027.79
2019-03-21T10:45:40.945Z,1027.77
2019-03-21T10:46:40.928Z,1027.77
2019-03-21T10:47:40.912Z,1027.78
2019-03-21T10:48:40.912Z,1027.76
2019-03-21T10:49:40.898Z,1027.79
2019-03-21T10:50:40.883Z,1027.76
2019-03-21T10:51:40.875Z,1027.80
2019-03-21T10:52:40.867Z,1027.78
2019-03-21T10:53:40.850Z,1027.78
2019-03-21T10:54:40.841Z,1027.77
2019-03-21T10:55:40.879Z,1027.77
2019-03-21T10:56:40.821Z,1027.82
2019-03-21T10:58:50.892Z,1027.76
2019-03-21T10:59:50.863Z,1027.72
2019-03-21T11:01:21.625Z,1027.72
2019-03-21T11:02:21.602Z,1027.71
2019-03-21T11:03:52.361Z,1027.71
2019-03-21T11:04:52.351Z,1027.72
2019-03-21T11:06:23.099Z,1027.68
2019-03-21T11:07:23.090Z,1027.73
2019-03-21T11:08:53.751Z,1027.73
2019-03-21T11:09:53.750Z,1027.73
2019-03-21T11:11:24.462Z,1027.75
2019-03-21T11:12:24.435Z,1027.71
2019-03-21T11:13:55.197Z,1027.69
2019-03-21T11:14:55.173Z,1027.66
2019-03-21T11:16:25.944Z,1027.74
2019-03-21T11:17:25.922Z,1027.72
2019-03-21T11:18:35.768Z,1027.68
2019-03-21T11:19:26.894Z,1027.64
2019-03-21T11:20:25.879Z,1027.68
2019-03-21T11:21:25.876Z,1027.68
2019-03-21T11:22:25.873Z,1027.68
2019-03-21T11:23:25.921Z,1027.65
2019-03-21T11:24:25.847Z,1027.68
2019-03-21T11:25:25.829Z,1027.70
2019-03-21T11:26:25.815Z,1027.66
2019-03-21T11:27:25.814Z,1027.59
2019-03-21T11:28:25.799Z,1027.62
2019-03-21T11:29:25.786Z,1027.64
2019-03-21T11:30:25.774Z,1027.61
2019-03-21T11:31:25.761Z,1027.61
2019-03-21T11:32:25.753Z,1027.60
2019-03-21T11:33:25.746Z,1027.54
2019-03-21T11:34:25.749Z,1027.55
2019-03-21T11:35:25.722Z,1027.51
2019-03-21T11:36:33.790Z,1027.53
2019-03-21T11:37:26.699Z,1027.49
2019-03-21T11:38:25.689Z,1027.45
2019-03-21T11:39:25.687Z,1027.39
2019-03-21T11:40:25.666Z,1027.43
2019-03-21T11:41:25.668Z,1027.43
2019-03-21T11:42:26.669Z,1027.47
2019-03-21T11:43:25.641Z,1027.44
2019-03-21T11:44:25.628Z,1027.45
2019-03-21T11:45:25.615Z,1027.45
2019-03-21T11:46:25.613Z,1027.43
2019-03-21T11:47:25.605Z,1027.46
2019-03-21T11:48:25.583Z,1027.44
2019-03-21T11:49:25.585Z,1027.45
2019-03-21T11:50:25.569Z,1027.40
2019-03-21T11:51:25.554Z,1027.45
2019-03-21T11:52:25.533Z,1027.43
2019-03-21T11:53:25.535Z,1027.45
2019-03-21T11:54:25.515Z,1027.46
2019-03-21T11:55:25.518Z,1027.43
2019-03-21T11:56:25.502Z,1027.46
2019-03-21T11:57:25.493Z,1027.48
2019-03-21T11:58:25.480Z,1027.46
2019-03-21T11:59:36.952Z,1027.49
2019-03-21T12:00:26.457Z,1027.45
2019-03-21T12:01:25.447Z,1027.38
2019-03-21T12:02:27.358Z,1027.39
2019-03-21T12:03:25.423Z,1027.36
2019-03-21T12:04:25.409Z,1027.36
2019-03-21T12:05:25.397Z,1027.38
2019-03-21T12:06:25.397Z,1027.34
2019-03-21T12:07:25.383Z,1027.36
2019-03-21T12:08:25.374Z,1027.35
2019-03-21T12:09:25.398Z,1027.36
2019-03-21T12:10:25.344Z,1027.37